TimeCDT,TemperatureF,Dew PointF,Humidity,Sea Level PressureIn,VisibilityMPH,Wind Direction,Wind SpeedMPH,Gust SpeedMPH,PrecipitationIn,Events,Conditions,WindDirDegrees,DateUTC
12:53 AM,37.9,26.1,62,30.35,10.0,WNW,3.5,-,N/A,,Overcast,300,2012-10-07 05:53:00
1:53 AM,37.9,26.1,62,30.35,10.0,Calm,Calm,-,N/A,,Clear,0,2012-10-07 06:53:00
2:53 AM,30.0,25.0,82,30.35,10.0,Calm,Calm,-,N/A,,Clear,0,2012-10-07 07:53:00
3:53 AM,30.9,24.1,76,30.34,10.0,Calm,Calm,-,N/A,,Clear,0,2012-10-07 08:53:00
4:53 AM,32.0,25.0,75,30.34,10.0,WNW,3.5,-,N/A,,Clear,300,2012-10-07 09:53:00
5:53 AM,28.9,23.0,78,30.34,10.0,Calm,Calm,-,N/A,,Clear,0,2012-10-07 10:53:00
6:53 AM,30.9,24.1,76,30.34,10.0,Calm,Calm,-,N/A,,Clear,0,2012-10-07 11:53:00
7:53 AM,30.9,24.1,76,30.35,10.0,Calm,Calm,-,N/A,,Clear,0,2012-10-07 12:53:00
8:53 AM,36.0,28.9,76,30.36,10.0,West,10.4,-,N/A,,Clear,280,2012-10-07 13:53:00
9:53 AM,39.9,30.9,70,30.35,10.0,West,5.8,-,N/A,,Clear,260,2012-10-07 14:53:00
10:53 AM,46.0,30.9,56,30.35,10.0,Variable,5.8,-,N/A,,Clear,0,2012-10-07 15:53:00
11:53 AM,53.1,32.0,45,30.32,10.0,West,9.2,-,N/A,,Clear,260,2012-10-07 16:53:00
12:53 PM,54.0,26.1,34,30.29,10.0,Calm,Calm,-,N/A,,Clear,0,2012-10-07 17:53:00
1:53 PM,55.0,25.0,31,30.25,10.0,Variable,4.6,-,N/A,,Clear,0,2012-10-07 18:53:00
2:53 PM,55.9,23.0,28,30.21,10.0,Variable,5.8,-,N/A,,Clear,0,2012-10-07 19:53:00
3:53 PM,57.9,23.0,26,30.18,10.0,SSW,4.6,-,N/A,,Clear,200,2012-10-07 20:53:00
4:53 PM,57.9,23.0,26,30.16,10.0,SSW,11.5,18.4,N/A,,Clear,200,2012-10-07 21:53:00
5:53 PM,57.0,23.0,27,30.16,10.0,West,9.2,-,N/A,,Clear,280,2012-10-07 22:53:00
6:53 PM,53.1,26.1,35,30.16,10.0,WSW,3.5,-,N/A,,Clear,240,2012-10-07 23:53:00
7:53 PM,52.0,28.0,40,30.17,10.0,WSW,3.5,-,N/A,,Overcast,240,2012-10-08 00:53:00
8:53 PM,46.9,30.0,52,30.17,10.0,Calm,Calm,-,N/A,,Clear,0,2012-10-08 01:53:00
9:53 PM,42.1,30.0,62,30.18,10.0,Calm,Calm,-,N/A,,Clear,0,2012-10-08 02:53:00
10:53 PM,39.0,28.9,67,30.17,10.0,Calm,Calm,-,N/A,,Clear,0,2012-10-08 03:53:00
11:53 PM,41.0,30.0,65,30.15,10.0,Calm,Calm,-,N/A,,Clear,0,2012-10-08 04:53:00